sensor_id;sensor_type;location;lat;lon;timestamp;P1;durP1;ratioP1;P2;durP2;ratioP2
51214;SDS011;63849;47.546;19.254;2022-12-08T00:00:01;49.30;;;34.33;;
51214;SDS011;63849;47.546;19.254;2022-12-08T00:02:27;45.53;;;31.98;;
51214;SDS011;63849;47.546;19.254;2022-12-08T00:04:53;45.30;;;31.23;;
51214;SDS011;63849;47.546;19.254;2022-12-08T00:07:37;49.90;;;32.03;;
51214;SDS011;63849;47.546;19.254;2022-12-08T00:10:22;45.63;;;29.80;;
51214;SDS011;63849;47.546;19.254;2022-12-08T00:12:47;48.95;;;32.08;;
51214;SDS011;63849;47.546;19.254;2022-12-08T00:15:13;48.58;;;32.63;;
51214;SDS011;63849;47.546;19.254;2022-12-08T00:17:39;57.70;;;38.22;;
51214;SDS011;63849;47.546;19.254;2022-12-08T00:20:05;106.72;;;68.47;;
51214;SDS011;63849;47.546;19.254;2022-12-08T00:22:31;113.65;;;74.70;;
51214;SDS011;63849;47.546;19.254;2022-12-08T00:24:57;93.38;;;61.65;;
51214;SDS011;63849;47.546;19.254;2022-12-08T00:27:22;88.38;;;54.33;;
51214;SDS011;63849;47.546;19.254;2022-12-08T00:29:48;78.70;;;49.53;;
51214;SDS011;63849;47.546;19.254;2022-12-08T00:32:14;81.68;;;53.22;;
51214;SDS011;63849;47.546;19.254;2022-12-08T00:34:40;74.63;;;48.85;;
51214;SDS011;63849;47.546;19.254;2022-12-08T00:37:06;67.07;;;44.28;;
51214;SDS011;63849;47.546;19.254;2022-12-08T00:39:31;64.70;;;41.97;;
51214;SDS011;63849;47.546;19.254;2022-12-08T00:41:57;68.13;;;42.40;;
51214;SDS011;63849;47.546;19.254;2022-12-08T00:44:38;62.25;;;39.35;;
51214;SDS011;63849;47.546;19.254;2022-12-08T00:47:05;61.60;;;39.13;;
51214;SDS011;63849;47.546;19.254;2022-12-08T00:49:30;60.67;;;39.70;;
51214;SDS011;63849;47.546;19.254;2022-12-08T00:51:56;62.53;;;39.42;;
51214;SDS011;63849;47.546;19.254;2022-12-08T00:54:22;60.65;;;39.05;;
51214;SDS011;63849;47.546;19.254;2022-12-08T00:56:48;62.85;;;39.03;;
51214;SDS011;63849;47.546;19.254;2022-12-08T00:59:14;58.65;;;36.78;;
51214;SDS011;63849;47.546;19.254;2022-12-08T01:01:42;60.72;;;38.28;;
51214;SDS011;63849;47.546;19.254;2022-12-08T01:04:09;55.58;;;36.80;;
51214;SDS011;63849;47.546;19.254;2022-12-08T01:06:39;58.35;;;38.55;;
51214;SDS011;63849;47.546;19.254;2022-12-08T01:09:05;59.15;;;37.67;;
51214;SDS011;63849;47.546;19.254;2022-12-08T01:11:33;59.33;;;37.83;;
51214;SDS011;63849;47.546;19.254;2022-12-08T01:13:59;63.97;;;39.53;;
51214;SDS011;63849;47.546;19.254;2022-12-08T01:16:26;58.90;;;37.05;;
51214;SDS011;63849;47.546;19.254;2022-12-08T01:18:54;61.67;;;37.60;;
51214;SDS011;63849;47.546;19.254;2022-12-08T01:21:21;54.05;;;36.78;;
51214;SDS011;63849;47.546;19.254;2022-12-08T01:23:47;63.22;;;38.95;;
51214;SDS011;63849;47.546;19.254;2022-12-08T01:26:14;59.97;;;38.15;;
51214;SDS011;63849;47.546;19.254;2022-12-08T01:28:41;57.60;;;37.20;;
51214;SDS011;63849;47.546;19.254;2022-12-08T01:31:17;56.00;;;39.35;;
51214;SDS011;63849;47.546;19.254;2022-12-08T01:33:45;57.38;;;37.25;;
51214;SDS011;63849;47.546;19.254;2022-12-08T01:36:17;54.13;;;37.70;;
51214;SDS011;63849;47.546;19.254;2022-12-08T01:38:45;56.22;;;35.78;;
51214;SDS011;63849;47.546;19.254;2022-12-08T01:41:16;61.33;;;37.97;;
51214;SDS011;63849;47.546;19.254;2022-12-08T01:46:21;56.97;;;36.67;;
51214;SDS011;63849;47.546;19.254;2022-12-08T01:48:47;56.25;;;36.60;;
51214;SDS011;63849;47.546;19.254;2022-12-08T01:51:15;54.72;;;35.25;;
51214;SDS011;63849;47.546;19.254;2022-12-08T01:53:41;51.03;;;33.78;;
51214;SDS011;63849;47.546;19.254;2022-12-08T01:56:09;54.65;;;36.28;;
51214;SDS011;63849;47.546;19.254;2022-12-08T01:58:43;52.90;;;34.83;;
51214;SDS011;63849;47.546;19.254;2022-12-08T02:01:15;50.85;;;33.60;;
51214;SDS011;63849;47.546;19.254;2022-12-08T02:03:53;53.22;;;33.30;;
51214;SDS011;63849;47.546;19.254;2022-12-08T02:06:25;54.03;;;33.35;;
51214;SDS011;63849;47.546;19.254;2022-12-08T02:08:52;46.53;;;30.90;;
51214;SDS011;63849;47.546;19.254;2022-12-08T02:11:19;45.45;;;31.30;;
51214;SDS011;63849;47.546;19.254;2022-12-08T02:13:45;46.70;;;30.92;;
51214;SDS011;63849;47.546;19.254;2022-12-08T02:18:59;47.17;;;31.17;;
51214;SDS011;63849;47.546;19.254;2022-12-08T02:32:45;44.35;;;29.02;;
51214;SDS011;63849;47.546;19.254;2022-12-08T02:35:47;42.47;;;27.98;;
51214;SDS011;63849;47.546;19.254;2022-12-08T02:38:28;43.58;;;27.95;;
51214;SDS011;63849;47.546;19.254;2022-12-08T02:43:56;42.90;;;28.95;;
51214;SDS011;63849;47.546;19.254;2022-12-08T02:46:33;41.17;;;27.25;;
51214;SDS011;63849;47.546;19.254;2022-12-08T02:49:04;38.72;;;26.33;;
51214;SDS011;63849;47.546;19.254;2022-12-08T02:51:31;46.95;;;28.40;;
51214;SDS011;63849;47.546;19.254;2022-12-08T02:53:57;38.00;;;25.67;;
51214;SDS011;63849;47.546;19.254;2022-12-08T03:04:49;38.72;;;26.90;;
51214;SDS011;63849;47.546;19.254;2022-12-08T03:07:20;42.58;;;26.48;;
51214;SDS011;63849;47.546;19.254;2022-12-08T03:10:20;41.85;;;27.05;;
51214;SDS011;63849;47.546;19.254;2022-12-08T03:12:49;35.75;;;25.15;;
51214;SDS011;63849;47.546;19.254;2022-12-08T03:15:21;41.42;;;27.40;;
51214;SDS011;63849;47.546;19.254;2022-12-08T03:17:51;39.80;;;25.30;;
51214;SDS011;63849;47.546;19.254;2022-12-08T03:20:21;36.85;;;25.48;;
51214;SDS011;63849;47.546;19.254;2022-12-08T03:22:49;39.17;;;26.27;;
51214;SDS011;63849;47.546;19.254;2022-12-08T03:25:18;38.45;;;26.35;;
51214;SDS011;63849;47.546;19.254;2022-12-08T03:27:46;35.67;;;25.67;;
51214;SDS011;63849;47.546;19.254;2022-12-08T03:30:13;34.42;;;25.02;;
51214;SDS011;63849;47.546;19.254;2022-12-08T03:32:43;36.05;;;25.40;;
51214;SDS011;63849;47.546;19.254;2022-12-08T03:35:15;36.53;;;24.43;;
51214;SDS011;63849;47.546;19.254;2022-12-08T03:37:44;39.35;;;25.00;;
51214;SDS011;63849;47.546;19.254;2022-12-08T03:40:12;35.92;;;23.95;;
51214;SDS011;63849;47.546;19.254;2022-12-08T03:42:39;35.13;;;23.92;;
51214;SDS011;63849;47.546;19.254;2022-12-08T03:45:05;32.35;;;23.63;;
51214;SDS011;63849;47.546;19.254;2022-12-08T03:47:31;31.52;;;22.73;;
51214;SDS011;63849;47.546;19.254;2022-12-08T03:49:57;31.52;;;22.58;;
51214;SDS011;63849;47.546;19.254;2022-12-08T03:52:23;29.92;;;22.65;;
51214;SDS011;63849;47.546;19.254;2022-12-08T03:54:48;32.72;;;23.15;;
51214;SDS011;63849;47.546;19.254;2022-12-08T03:57:14;29.95;;;20.88;;
51214;SDS011;63849;47.546;19.254;2022-12-08T03:59:40;31.65;;;23.10;;
51214;SDS011;63849;47.546;19.254;2022-12-08T04:02:06;33.20;;;23.25;;
51214;SDS011;63849;47.546;19.254;2022-12-08T04:04:31;28.58;;;22.08;;
51214;SDS011;63849;47.546;19.254;2022-12-08T04:06:57;28.17;;;20.77;;
51214;SDS011;63849;47.546;19.254;2022-12-08T04:09:23;26.67;;;20.60;;
51214;SDS011;63849;47.546;19.254;2022-12-08T04:11:49;33.63;;;22.85;;
51214;SDS011;63849;47.546;19.254;2022-12-08T04:14:14;31.77;;;21.27;;
51214;SDS011;63849;47.546;19.254;2022-12-08T04:16:40;30.42;;;22.73;;
51214;SDS011;63849;47.546;19.254;2022-12-08T04:19:06;35.35;;;25.35;;
51214;SDS011;63849;47.546;19.254;2022-12-08T04:21:32;36.25;;;24.55;;
51214;SDS011;63849;47.546;19.254;2022-12-08T04:23:57;33.53;;;24.75;;
51214;SDS011;63849;47.546;19.254;2022-12-08T04:26:23;35.88;;;24.92;;
51214;SDS011;63849;47.546;19.254;2022-12-08T04:28:49;32.20;;;23.83;;
51214;SDS011;63849;47.546;19.254;2022-12-08T04:31:15;40.85;;;26.38;;
51214;SDS011;63849;47.546;19.254;2022-12-08T04:33:41;38.10;;;26.35;;
51214;SDS011;63849;47.546;19.254;2022-12-08T04:36:06;39.90;;;26.83;;
51214;SDS011;63849;47.546;19.254;2022-12-08T04:38:33;37.88;;;27.08;;
51214;SDS011;63849;47.546;19.254;2022-12-08T04:40:59;36.30;;;25.88;;
51214;SDS011;63849;47.546;19.254;2022-12-08T04:43:25;35.60;;;24.92;;
51214;SDS011;63849;47.546;19.254;2022-12-08T04:45:51;36.00;;;26.05;;
51214;SDS011;63849;47.546;19.254;2022-12-08T04:48:17;40.47;;;25.77;;
51214;SDS011;63849;47.546;19.254;2022-12-08T04:50:43;39.53;;;27.05;;
51214;SDS011;63849;47.546;19.254;2022-12-08T04:53:10;38.20;;;25.42;;
51214;SDS011;63849;47.546;19.254;2022-12-08T04:55:37;38.42;;;26.67;;
51214;SDS011;63849;47.546;19.254;2022-12-08T04:58:05;42.33;;;26.90;;
51214;SDS011;63849;47.546;19.254;2022-12-08T05:00:31;40.63;;;26.95;;
51214;SDS011;63849;47.546;19.254;2022-12-08T05:02:56;40.00;;;26.45;;
51214;SDS011;63849;47.546;19.254;2022-12-08T05:05:22;38.33;;;26.13;;
51214;SDS011;63849;47.546;19.254;2022-12-08T05:07:48;34.15;;;25.33;;
51214;SDS011;63849;47.546;19.254;2022-12-08T05:10:14;36.95;;;25.65;;
51214;SDS011;63849;47.546;19.254;2022-12-08T05:12:40;39.22;;;25.75;;
51214;SDS011;63849;47.546;19.254;2022-12-08T05:15:06;35.38;;;24.38;;
51214;SDS011;63849;47.546;19.254;2022-12-08T05:17:32;33.92;;;24.23;;
51214;SDS011;63849;47.546;19.254;2022-12-08T05:19:57;35.10;;;26.02;;
51214;SDS011;63849;47.546;19.254;2022-12-08T05:22:24;37.95;;;25.55;;
51214;SDS011;63849;47.546;19.254;2022-12-08T05:24:50;36.45;;;26.90;;
51214;SDS011;63849;47.546;19.254;2022-12-08T05:27:15;35.20;;;25.02;;
51214;SDS011;63849;47.546;19.254;2022-12-08T05:29:41;36.67;;;26.52;;
51214;SDS011;63849;47.546;19.254;2022-12-08T05:32:07;35.03;;;24.63;;
51214;SDS011;63849;47.546;19.254;2022-12-08T05:34:32;35.58;;;25.83;;
51214;SDS011;63849;47.546;19.254;2022-12-08T05:37:01;38.05;;;25.52;;
51214;SDS011;63849;47.546;19.254;2022-12-08T05:39:27;34.70;;;24.98;;
51214;SDS011;63849;47.546;19.254;2022-12-08T05:41:53;36.90;;;26.60;;
51214;SDS011;63849;47.546;19.254;2022-12-08T05:44:19;36.95;;;26.13;;
51214;SDS011;63849;47.546;19.254;2022-12-08T05:46:47;41.15;;;25.95;;
51214;SDS011;63849;47.546;19.254;2022-12-08T05:49:13;37.88;;;25.90;;
51214;SDS011;63849;47.546;19.254;2022-12-08T05:51:39;38.70;;;27.73;;
51214;SDS011;63849;47.546;19.254;2022-12-08T05:54:05;63.40;;;37.83;;
51214;SDS011;63849;47.546;19.254;2022-12-08T05:56:31;66.25;;;38.50;;
51214;SDS011;63849;47.546;19.254;2022-12-08T05:58:56;65.40;;;38.08;;
51214;SDS011;63849;47.546;19.254;2022-12-08T06:01:24;57.63;;;34.33;;
51214;SDS011;63849;47.546;19.254;2022-12-08T06:03:52;41.22;;;27.52;;
51214;SDS011;63849;47.546;19.254;2022-12-08T06:06:18;42.15;;;28.80;;
51214;SDS011;63849;47.546;19.254;2022-12-08T06:08:44;42.28;;;30.60;;
51214;SDS011;63849;47.546;19.254;2022-12-08T06:11:16;45.08;;;30.75;;
51214;SDS011;63849;47.546;19.254;2022-12-08T06:13:43;45.85;;;29.60;;
51214;SDS011;63849;47.546;19.254;2022-12-08T06:16:09;41.40;;;29.60;;
51214;SDS011;63849;47.546;19.254;2022-12-08T06:18:35;37.88;;;28.60;;
51214;SDS011;63849;47.546;19.254;2022-12-08T06:21:10;38.30;;;27.95;;
51214;SDS011;63849;47.546;19.254;2022-12-08T06:23:37;38.35;;;26.63;;
51214;SDS011;63849;47.546;19.254;2022-12-08T06:26:04;43.78;;;27.88;;
51214;SDS011;63849;47.546;19.254;2022-12-08T06:28:40;36.22;;;26.05;;
51214;SDS011;63849;47.546;19.254;2022-12-08T06:31:07;35.53;;;26.02;;
51214;SDS011;63849;47.546;19.254;2022-12-08T06:33:38;41.20;;;27.10;;
51214;SDS011;63849;47.546;19.254;2022-12-08T06:36:04;38.13;;;26.20;;
51214;SDS011;63849;47.546;19.254;2022-12-08T06:38:31;34.90;;;26.45;;
51214;SDS011;63849;47.546;19.254;2022-12-08T06:40:57;37.05;;;26.98;;
51214;SDS011;63849;47.546;19.254;2022-12-08T06:43:24;44.30;;;31.08;;
51214;SDS011;63849;47.546;19.254;2022-12-08T06:45:50;53.17;;;37.15;;
51214;SDS011;63849;47.546;19.254;2022-12-08T06:48:16;66.45;;;43.28;;
51214;SDS011;63849;47.546;19.254;2022-12-08T06:50:43;60.40;;;41.90;;
51214;SDS011;63849;47.546;19.254;2022-12-08T06:53:12;53.90;;;36.72;;
51214;SDS011;63849;47.546;19.254;2022-12-08T06:55:46;47.75;;;34.13;;
51214;SDS011;63849;47.546;19.254;2022-12-08T06:58:16;42.15;;;28.73;;
51214;SDS011;63849;47.546;19.254;2022-12-08T07:00:42;35.33;;;25.45;;
51214;SDS011;63849;47.546;19.254;2022-12-08T07:03:08;35.72;;;26.92;;
51214;SDS011;63849;47.546;19.254;2022-12-08T07:05:35;41.25;;;28.90;;
51214;SDS011;63849;47.546;19.254;2022-12-08T07:08:02;47.42;;;30.75;;
51214;SDS011;63849;47.546;19.254;2022-12-08T07:10:28;52.40;;;36.40;;
51214;SDS011;63849;47.546;19.254;2022-12-08T07:12:54;111.70;;;77.38;;
51214;SDS011;63849;47.546;19.254;2022-12-08T07:15:20;95.88;;;64.20;;
51214;SDS011;63849;47.546;19.254;2022-12-08T07:17:46;85.57;;;52.85;;
51214;SDS011;63849;47.546;19.254;2022-12-08T07:20:12;69.97;;;47.60;;
51214;SDS011;63849;47.546;19.254;2022-12-08T07:22:38;71.20;;;47.30;;
51214;SDS011;63849;47.546;19.254;2022-12-08T07:25:04;67.65;;;45.70;;
51214;SDS011;63849;47.546;19.254;2022-12-08T07:27:30;63.72;;;44.70;;
51214;SDS011;63849;47.546;19.254;2022-12-08T07:29:56;59.95;;;40.33;;
51214;SDS011;63849;47.546;19.254;2022-12-08T07:32:22;69.95;;;43.70;;
51214;SDS011;63849;47.546;19.254;2022-12-08T07:34:48;91.38;;;53.22;;
51214;SDS011;63849;47.546;19.254;2022-12-08T07:37:14;88.18;;;54.50;;
51214;SDS011;63849;47.546;19.254;2022-12-08T07:39:39;86.88;;;50.78;;
51214;SDS011;63849;47.546;19.254;2022-12-08T07:42:05;84.03;;;52.63;;
51214;SDS011;63849;47.546;19.254;2022-12-08T07:44:31;82.00;;;52.67;;
51214;SDS011;63849;47.546;19.254;2022-12-08T07:46:56;91.78;;;54.53;;
51214;SDS011;63849;47.546;19.254;2022-12-08T07:49:22;82.47;;;52.55;;
51214;SDS011;63849;47.546;19.254;2022-12-08T07:51:48;79.80;;;51.50;;
51214;SDS011;63849;47.546;19.254;2022-12-08T07:54:13;79.10;;;50.95;;
51214;SDS011;63849;47.546;19.254;2022-12-08T07:56:39;78.38;;;50.53;;
51214;SDS011;63849;47.546;19.254;2022-12-08T07:59:05;74.40;;;47.88;;
51214;SDS011;63849;47.546;19.254;2022-12-08T08:01:31;77.55;;;48.15;;
51214;SDS011;63849;47.546;19.254;2022-12-08T08:03:59;69.07;;;47.30;;
51214;SDS011;63849;47.546;19.254;2022-12-08T08:06:26;71.35;;;45.95;;
51214;SDS011;63849;47.546;19.254;2022-12-08T08:08:52;63.67;;;41.45;;
51214;SDS011;63849;47.546;19.254;2022-12-08T08:11:18;62.58;;;40.53;;
51214;SDS011;63849;47.546;19.254;2022-12-08T08:13:44;81.43;;;47.15;;
51214;SDS011;63849;47.546;19.254;2022-12-08T08:16:10;85.38;;;44.65;;
51214;SDS011;63849;47.546;19.254;2022-12-08T08:18:37;66.00;;;37.05;;
51214;SDS011;63849;47.546;19.254;2022-12-08T08:21:04;79.93;;;40.92;;
51214;SDS011;63849;47.546;19.254;2022-12-08T08:23:30;74.22;;;38.25;;
51214;SDS011;63849;47.546;19.254;2022-12-08T08:25:58;41.90;;;26.52;;
51214;SDS011;63849;47.546;19.254;2022-12-08T08:28:25;32.75;;;22.65;;
51214;SDS011;63849;47.546;19.254;2022-12-08T08:30:51;24.38;;;19.25;;
51214;SDS011;63849;47.546;19.254;2022-12-08T08:33:17;25.60;;;19.02;;
51214;SDS011;63849;47.546;19.254;2022-12-08T08:35:43;28.48;;;20.58;;
51214;SDS011;63849;47.546;19.254;2022-12-08T08:38:09;25.02;;;19.45;;
51214;SDS011;63849;47.546;19.254;2022-12-08T08:40:34;28.05;;;19.08;;
51214;SDS011;63849;47.546;19.254;2022-12-08T08:43:02;26.42;;;18.90;;
51214;SDS011;63849;47.546;19.254;2022-12-08T08:45:29;26.25;;;19.20;;
51214;SDS011;63849;47.546;19.254;2022-12-08T08:47:55;26.30;;;19.38;;
51214;SDS011;63849;47.546;19.254;2022-12-08T08:50:21;30.95;;;21.98;;
51214;SDS011;63849;47.546;19.254;2022-12-08T08:52:47;32.95;;;21.80;;
51214;SDS011;63849;47.546;19.254;2022-12-08T08:55:13;31.55;;;22.85;;
51214;SDS011;63849;47.546;19.254;2022-12-08T08:57:39;29.98;;;23.17;;
51214;SDS011;63849;47.546;19.254;2022-12-08T09:00:05;29.08;;;22.77;;
51214;SDS011;63849;47.546;19.254;2022-12-08T09:02:34;31.85;;;25.40;;
51214;SDS011;63849;47.546;19.254;2022-12-08T09:05:00;33.50;;;27.55;;
51214;SDS011;63849;47.546;19.254;2022-12-08T09:07:26;35.10;;;27.58;;
51214;SDS011;63849;47.546;19.254;2022-12-08T09:09:52;36.25;;;28.13;;
51214;SDS011;63849;47.546;19.254;2022-12-08T09:12:18;31.33;;;23.58;;
51214;SDS011;63849;47.546;19.254;2022-12-08T09:14:43;30.65;;;22.85;;
51214;SDS011;63849;47.546;19.254;2022-12-08T09:17:10;28.25;;;22.15;;
51214;SDS011;63849;47.546;19.254;2022-12-08T09:19:36;30.52;;;23.13;;
51214;SDS011;63849;47.546;19.254;2022-12-08T09:22:02;31.67;;;23.63;;
51214;SDS011;63849;47.546;19.254;2022-12-08T09:24:30;34.65;;;25.35;;
51214;SDS011;63849;47.546;19.254;2022-12-08T09:26:56;30.50;;;23.48;;
51214;SDS011;63849;47.546;19.254;2022-12-08T09:29:22;32.15;;;22.95;;
51214;SDS011;63849;47.546;19.254;2022-12-08T09:31:48;30.42;;;23.23;;
51214;SDS011;63849;47.546;19.254;2022-12-08T09:34:14;28.85;;;22.63;;
51214;SDS011;63849;47.546;19.254;2022-12-08T09:36:40;29.90;;;22.73;;
51214;SDS011;63849;47.546;19.254;2022-12-08T09:39:06;30.63;;;22.25;;
51214;SDS011;63849;47.546;19.254;2022-12-08T09:44:04;39.58;;;29.10;;
51214;SDS011;63849;47.546;19.254;2022-12-08T09:46:43;31.30;;;23.73;;
51214;SDS011;63849;47.546;19.254;2022-12-08T09:49:20;28.58;;;21.70;;
51214;SDS011;63849;47.546;19.254;2022-12-08T09:51:57;27.30;;;21.20;;
51214;SDS011;63849;47.546;19.254;2022-12-08T09:54:25;26.88;;;21.88;;
51214;SDS011;63849;47.546;19.254;2022-12-08T09:56:55;29.30;;;22.65;;
51214;SDS011;63849;47.546;19.254;2022-12-08T09:59:26;30.85;;;21.70;;
51214;SDS011;63849;47.546;19.254;2022-12-08T10:01:55;25.38;;;19.83;;
51214;SDS011;63849;47.546;19.254;2022-12-08T10:04:30;33.05;;;24.60;;
51214;SDS011;63849;47.546;19.254;2022-12-08T10:07:04;40.05;;;26.67;;
51214;SDS011;63849;47.546;19.254;2022-12-08T10:12:53;35.45;;;25.00;;
51214;SDS011;63849;47.546;19.254;2022-12-08T10:18:02;41.63;;;33.78;;
51214;SDS011;63849;47.546;19.254;2022-12-08T10:20:39;36.72;;;27.33;;
51214;SDS011;63849;47.546;19.254;2022-12-08T10:25:40;33.03;;;24.77;;
51214;SDS011;63849;47.546;19.254;2022-12-08T10:28:10;30.10;;;24.58;;
51214;SDS011;63849;47.546;19.254;2022-12-08T10:30:37;37.75;;;25.67;;
51214;SDS011;63849;47.546;19.254;2022-12-08T10:33:03;34.97;;;26.13;;
51214;SDS011;63849;47.546;19.254;2022-12-08T10:40:52;33.35;;;25.80;;
51214;SDS011;63849;47.546;19.254;2022-12-08T10:43:30;32.42;;;24.05;;
51214;SDS011;63849;47.546;19.254;2022-12-08T10:46:13;32.47;;;23.33;;
51214;SDS011;63849;47.546;19.254;2022-12-08T10:48:50;33.72;;;23.65;;
51214;SDS011;63849;47.546;19.254;2022-12-08T10:51:25;33.53;;;25.02;;
51214;SDS011;63849;47.546;19.254;2022-12-08T10:53:53;28.77;;;21.92;;
51214;SDS011;63849;47.546;19.254;2022-12-08T10:56:19;30.48;;;22.48;;
51214;SDS011;63849;47.546;19.254;2022-12-08T11:01:38;31.35;;;22.48;;
51214;SDS011;63849;47.546;19.254;2022-12-08T11:04:38;29.95;;;21.23;;
51214;SDS011;63849;47.546;19.254;2022-12-08T11:07:01;27.25;;;20.33;;
51214;SDS011;63849;47.546;19.254;2022-12-08T11:12:14;26.05;;;21.42;;
51214;SDS011;63849;47.546;19.254;2022-12-08T11:20:00;33.53;;;21.80;;
51214;SDS011;63849;47.546;19.254;2022-12-08T11:22:34;26.70;;;19.10;;
51214;SDS011;63849;47.546;19.254;2022-12-08T11:27:42;27.35;;;21.20;;
51214;SDS011;63849;47.546;19.254;2022-12-08T11:30:20;28.73;;;22.92;;
51214;SDS011;63849;47.546;19.254;2022-12-08T11:32:57;33.15;;;22.05;;
51214;SDS011;63849;47.546;19.254;2022-12-08T11:35:40;30.02;;;21.92;;
51214;SDS011;63849;47.546;19.254;2022-12-08T11:38:22;29.13;;;22.20;;
51214;SDS011;63849;47.546;19.254;2022-12-08T11:40:58;32.35;;;24.60;;
51214;SDS011;63849;47.546;19.254;2022-12-08T11:46:03;31.52;;;22.08;;
51214;SDS011;63849;47.546;19.254;2022-12-08T11:48:49;29.17;;;21.02;;
51214;SDS011;63849;47.546;19.254;2022-12-08T11:54:05;32.85;;;23.23;;
51214;SDS011;63849;47.546;19.254;2022-12-08T11:56:43;31.92;;;22.13;;
51214;SDS011;63849;47.546;19.254;2022-12-08T11:59:39;35.65;;;20.27;;
51214;SDS011;63849;47.546;19.254;2022-12-08T12:02:12;34.70;;;22.60;;
51214;SDS011;63849;47.546;19.254;2022-12-08T12:16:14;27.35;;;19.83;;
51214;SDS011;63849;47.546;19.254;2022-12-08T12:18:53;30.40;;;21.80;;
51214;SDS011;63849;47.546;19.254;2022-12-08T12:23:58;33.75;;;24.30;;
51214;SDS011;63849;47.546;19.254;2022-12-08T12:26:34;31.73;;;22.90;;
51214;SDS011;63849;47.546;19.254;2022-12-08T12:31:31;27.00;;;20.80;;
51214;SDS011;63849;47.546;19.254;2022-12-08T12:34:21;50.03;;;29.55;;
51214;SDS011;63849;47.546;19.254;2022-12-08T12:36:53;35.90;;;24.63;;
51214;SDS011;63849;47.546;19.254;2022-12-08T12:42:37;25.70;;;14.93;;
51214;SDS011;63849;47.546;19.254;2022-12-08T12:50:13;29.00;;;20.73;;
51214;SDS011;63849;47.546;19.254;2022-12-08T12:55:28;30.42;;;21.92;;
51214;SDS011;63849;47.546;19.254;2022-12-08T13:00:47;28.73;;;20.98;;
51214;SDS011;63849;47.546;19.254;2022-12-08T13:03:13;30.00;;;21.75;;
51214;SDS011;63849;47.546;19.254;2022-12-08T13:05:48;34.20;;;23.30;;
51214;SDS011;63849;47.546;19.254;2022-12-08T13:08:23;123.35;;;29.45;;
51214;SDS011;63849;47.546;19.254;2022-12-08T13:13:31;32.55;;;21.23;;
51214;SDS011;63849;47.546;19.254;2022-12-08T13:21:04;29.73;;;20.85;;
51214;SDS011;63849;47.546;19.254;2022-12-08T13:26:12;30.60;;;20.75;;
51214;SDS011;63849;47.546;19.254;2022-12-08T13:31:44;33.40;;;23.50;;
51214;SDS011;63849;47.546;19.254;2022-12-08T13:44:39;35.53;;;24.48;;
51214;SDS011;63849;47.546;19.254;2022-12-08T13:47:12;35.47;;;23.33;;
51214;SDS011;63849;47.546;19.254;2022-12-08T13:49:47;33.67;;;24.98;;
51214;SDS011;63849;47.546;19.254;2022-12-08T13:52:18;34.70;;;24.25;;
51214;SDS011;63849;47.546;19.254;2022-12-08T13:54:53;41.25;;;28.27;;
51214;SDS011;63849;47.546;19.254;2022-12-08T13:57:23;40.08;;;25.63;;
51214;SDS011;63849;47.546;19.254;2022-12-08T13:59:53;40.42;;;26.70;;
51214;SDS011;63849;47.546;19.254;2022-12-08T14:02:32;39.83;;;27.52;;
51214;SDS011;63849;47.546;19.254;2022-12-08T14:05:03;38.90;;;25.30;;
51214;SDS011;63849;47.546;19.254;2022-12-08T14:07:30;35.90;;;25.92;;
51214;SDS011;63849;47.546;19.254;2022-12-08T14:09:57;33.78;;;25.35;;
51214;SDS011;63849;47.546;19.254;2022-12-08T14:12:26;34.72;;;25.67;;
51214;SDS011;63849;47.546;19.254;2022-12-08T14:14:55;34.30;;;24.58;;
51214;SDS011;63849;47.546;19.254;2022-12-08T14:17:24;32.88;;;24.58;;
51214;SDS011;63849;47.546;19.254;2022-12-08T14:20:00;41.25;;;27.40;;
51214;SDS011;63849;47.546;19.254;2022-12-08T14:22:47;34.78;;;25.38;;
51214;SDS011;63849;47.546;19.254;2022-12-08T14:25:14;34.67;;;24.95;;
51214;SDS011;63849;47.546;19.254;2022-12-08T14:27:41;36.85;;;26.80;;
51214;SDS011;63849;47.546;19.254;2022-12-08T14:32:56;38.38;;;26.50;;
51214;SDS011;63849;47.546;19.254;2022-12-08T14:37:49;36.65;;;24.98;;
51214;SDS011;63849;47.546;19.254;2022-12-08T14:40:23;32.65;;;24.27;;
51214;SDS011;63849;47.546;19.254;2022-12-08T14:53:44;35.05;;;24.80;;
51214;SDS011;63849;47.546;19.254;2022-12-08T14:56:24;33.35;;;24.10;;
51214;SDS011;63849;47.546;19.254;2022-12-08T14:59:18;43.55;;;25.67;;
51214;SDS011;63849;47.546;19.254;2022-12-08T15:01:50;42.28;;;27.00;;
51214;SDS011;63849;47.546;19.254;2022-12-08T15:04:18;36.95;;;25.58;;
51214;SDS011;63849;47.546;19.254;2022-12-08T15:09:39;35.95;;;24.92;;
51214;SDS011;63849;47.546;19.254;2022-12-08T15:14:40;37.05;;;26.38;;
51214;SDS011;63849;47.546;19.254;2022-12-08T15:23:03;31.48;;;23.65;;
51214;SDS011;63849;47.546;19.254;2022-12-08T15:25:30;34.50;;;25.25;;
51214;SDS011;63849;47.546;19.254;2022-12-08T15:27:56;34.53;;;23.33;;
51214;SDS011;63849;47.546;19.254;2022-12-08T15:30:23;34.20;;;24.35;;
51214;SDS011;63849;47.546;19.254;2022-12-08T15:32:52;35.20;;;24.70;;
51214;SDS011;63849;47.546;19.254;2022-12-08T15:35:20;37.35;;;26.48;;
51214;SDS011;63849;47.546;19.254;2022-12-08T15:37:46;41.92;;;28.00;;
51214;SDS011;63849;47.546;19.254;2022-12-08T15:40:19;33.75;;;23.88;;
51214;SDS011;63849;47.546;19.254;2022-12-08T15:42:47;35.10;;;24.95;;
51214;SDS011;63849;47.546;19.254;2022-12-08T15:45:13;36.05;;;24.80;;
51214;SDS011;63849;47.546;19.254;2022-12-08T15:47:41;42.97;;;30.52;;
51214;SDS011;63849;47.546;19.254;2022-12-08T15:50:20;30.98;;;23.02;;
51214;SDS011;63849;47.546;19.254;2022-12-08T15:52:47;39.38;;;25.88;;
51214;SDS011;63849;47.546;19.254;2022-12-08T15:55:14;33.60;;;24.25;;
51214;SDS011;63849;47.546;19.254;2022-12-08T15:57:43;38.08;;;27.83;;
51214;SDS011;63849;47.546;19.254;2022-12-08T16:02:50;39.55;;;29.08;;
51214;SDS011;63849;47.546;19.254;2022-12-08T16:05:16;33.92;;;25.02;;
51214;SDS011;63849;47.546;19.254;2022-12-08T16:07:42;34.85;;;23.55;;
51214;SDS011;63849;47.546;19.254;2022-12-08T16:10:15;35.00;;;24.60;;
51214;SDS011;63849;47.546;19.254;2022-12-08T16:12:42;33.42;;;23.83;;
51214;SDS011;63849;47.546;19.254;2022-12-08T16:15:27;35.00;;;24.67;;
51214;SDS011;63849;47.546;19.254;2022-12-08T16:17:54;32.95;;;24.02;;
51214;SDS011;63849;47.546;19.254;2022-12-08T16:20:21;31.27;;;22.30;;
51214;SDS011;63849;47.546;19.254;2022-12-08T16:22:47;23.30;;;17.50;;
51214;SDS011;63849;47.546;19.254;2022-12-08T16:25:13;26.17;;;18.80;;
51214;SDS011;63849;47.546;19.254;2022-12-08T16:27:39;28.15;;;20.45;;
51214;SDS011;63849;47.546;19.254;2022-12-08T16:30:06;26.58;;;19.33;;
51214;SDS011;63849;47.546;19.254;2022-12-08T16:32:39;27.10;;;18.83;;
51214;SDS011;63849;47.546;19.254;2022-12-08T16:35:05;30.30;;;20.10;;
51214;SDS011;63849;47.546;19.254;2022-12-08T16:37:31;27.27;;;18.45;;
51214;SDS011;63849;47.546;19.254;2022-12-08T16:39:57;32.90;;;22.27;;
51214;SDS011;63849;47.546;19.254;2022-12-08T16:42:27;58.55;;;34.10;;
51214;SDS011;63849;47.546;19.254;2022-12-08T16:45:05;58.10;;;31.67;;